sensor_id;sensor_type;location;lat;lon;timestamp;temperature;humidity
20929;DHT22;21895;47.072;15.132;2024-01-25T00:00:18;5.50;99.90
20929;DHT22;21895;47.072;15.132;2024-01-25T00:02:44;5.50;99.90
20929;DHT22;21895;47.072;15.132;2024-01-25T00:05:11;5.50;99.90
20929;DHT22;21895;47.072;15.132;2024-01-25T00:07:47;5.60;99.90
20929;DHT22;21895;47.072;15.132;2024-01-25T00:10:18;5.90;99.90
20929;DHT22;21895;47.072;15.132;2024-01-25T00:12:45;6.60;99.60
20929;DHT22;21895;47.072;15.132;2024-01-25T00:15:12;6.90;99.10
20929;DHT22;21895;47.072;15.132;2024-01-25T00:17:39;7.00;99.10
20929;DHT22;21895;47.072;15.132;2024-01-25T00:20:08;7.10;98.00
20929;DHT22;21895;47.072;15.132;2024-01-25T00:22:36;7.60;95.70
20929;DHT22;21895;47.072;15.132;2024-01-25T00:25:04;7.80;95.80
20929;DHT22;21895;47.072;15.132;2024-01-25T00:27:32;7.90;95.30
20929;DHT22;21895;47.072;15.132;2024-01-25T00:29:59;8.00;95.10
20929;DHT22;21895;47.072;15.132;2024-01-25T00:32:26;8.00;95.30
20929;DHT22;21895;47.072;15.132;2024-01-25T00:34:53;8.00;95.00
20929;DHT22;21895;47.072;15.132;2024-01-25T00:37:20;7.90;94.80
20929;DHT22;21895;47.072;15.132;2024-01-25T00:39:47;7.90;95.10
20929;DHT22;21895;47.072;15.132;2024-01-25T00:42:16;7.70;95.50
20929;DHT22;21895;47.072;15.132;2024-01-25T00:44:47;7.50;96.50
20929;DHT22;21895;47.072;15.132;2024-01-25T00:47:14;7.30;96.70
20929;DHT22;21895;47.072;15.132;2024-01-25T00:49:41;7.20;96.90
20929;DHT22;21895;47.072;15.132;2024-01-25T00:52:09;7.20;96.50
20929;DHT22;21895;47.072;15.132;2024-01-25T00:54:36;7.90;93.50
20929;DHT22;21895;47.072;15.132;2024-01-25T00:57:04;9.20;90.90
20929;DHT22;21895;47.072;15.132;2024-01-25T00:59:31;9.90;90.30
20929;DHT22;21895;47.072;15.132;2024-01-25T01:01:58;10.60;88.30
20929;DHT22;21895;47.072;15.132;2024-01-25T01:04:30;10.90;84.60
20929;DHT22;21895;47.072;15.132;2024-01-25T01:07:12;11.10;85.10
20929;DHT22;21895;47.072;15.132;2024-01-25T01:09:39;10.70;88.60
20929;DHT22;21895;47.072;15.132;2024-01-25T01:12:06;9.80;91.20
20929;DHT22;21895;47.072;15.132;2024-01-25T01:14:33;9.30;90.70
20929;DHT22;21895;47.072;15.132;2024-01-25T01:17:00;9.00;92.30
20929;DHT22;21895;47.072;15.132;2024-01-25T01:19:27;8.50;92.90
20929;DHT22;21895;47.072;15.132;2024-01-25T01:21:53;8.60;91.70
20929;DHT22;21895;47.072;15.132;2024-01-25T01:24:20;8.20;93.60
20929;DHT22;21895;47.072;15.132;2024-01-25T01:26:47;7.80;94.50
20929;DHT22;21895;47.072;15.132;2024-01-25T01:29:15;7.70;93.50
20929;DHT22;21895;47.072;15.132;2024-01-25T01:31:41;7.90;93.10
20929;DHT22;21895;47.072;15.132;2024-01-25T01:34:08;8.20;92.30
20929;DHT22;21895;47.072;15.132;2024-01-25T01:36:35;8.30;92.60
20929;DHT22;21895;47.072;15.132;2024-01-25T01:39:01;8.20;93.30
20929;DHT22;21895;47.072;15.132;2024-01-25T01:41:28;8.20;91.30
20929;DHT22;21895;47.072;15.132;2024-01-25T01:43:55;8.50;91.60
20929;DHT22;21895;47.072;15.132;2024-01-25T01:46:36;8.60;91.50
20929;DHT22;21895;47.072;15.132;2024-01-25T01:49:13;8.70;91.10
20929;DHT22;21895;47.072;15.132;2024-01-25T01:51:41;8.60;91.80
20929;DHT22;21895;47.072;15.132;2024-01-25T01:54:10;8.40;91.80
20929;DHT22;21895;47.072;15.132;2024-01-25T01:56:37;8.50;90.90
20929;DHT22;21895;47.072;15.132;2024-01-25T01:59:09;8.40;92.10
20929;DHT22;21895;47.072;15.132;2024-01-25T02:01:37;8.30;91.90
20929;DHT22;21895;47.072;15.132;2024-01-25T02:04:07;8.30;91.60
20929;DHT22;21895;47.072;15.132;2024-01-25T02:06:34;9.20;87.00
20929;DHT22;21895;47.072;15.132;2024-01-25T02:09:01;10.50;82.40
20929;DHT22;21895;47.072;15.132;2024-01-25T02:11:29;10.50;85.50
20929;DHT22;21895;47.072;15.132;2024-01-25T02:13:56;10.30;83.80
20929;DHT22;21895;47.072;15.132;2024-01-25T02:16:22;11.00;79.30
20929;DHT22;21895;47.072;15.132;2024-01-25T02:18:51;11.40;77.40
20929;DHT22;21895;47.072;15.132;2024-01-25T02:21:20;11.50;76.50
20929;DHT22;21895;47.072;15.132;2024-01-25T02:23:46;11.60;77.10
20929;DHT22;21895;47.072;15.132;2024-01-25T02:26:13;11.80;74.50
20929;DHT22;21895;47.072;15.132;2024-01-25T02:28:40;12.00;73.80
20929;DHT22;21895;47.072;15.132;2024-01-25T02:31:06;12.10;72.90
20929;DHT22;21895;47.072;15.132;2024-01-25T02:33:33;12.00;72.90
20929;DHT22;21895;47.072;15.132;2024-01-25T02:36:00;11.90;71.90
20929;DHT22;21895;47.072;15.132;2024-01-25T02:38:27;12.10;70.70
20929;DHT22;21895;47.072;15.132;2024-01-25T02:40:53;12.30;69.50
20929;DHT22;21895;47.072;15.132;2024-01-25T02:43:20;12.30;69.00
20929;DHT22;21895;47.072;15.132;2024-01-25T02:45:48;12.20;68.90
20929;DHT22;21895;47.072;15.132;2024-01-25T02:48:16;12.20;68.50
20929;DHT22;21895;47.072;15.132;2024-01-25T02:50:43;12.20;69.50
20929;DHT22;21895;47.072;15.132;2024-01-25T02:53:09;11.90;69.10
20929;DHT22;21895;47.072;15.132;2024-01-25T02:55:36;12.00;68.60
20929;DHT22;21895;47.072;15.132;2024-01-25T02:58:03;12.20;67.40
20929;DHT22;21895;47.072;15.132;2024-01-25T03:00:29;12.20;66.20
20929;DHT22;21895;47.072;15.132;2024-01-25T03:02:56;12.10;66.60
20929;DHT22;21895;47.072;15.132;2024-01-25T03:05:23;12.10;67.80
20929;DHT22;21895;47.072;15.132;2024-01-25T03:07:49;12.10;66.60
20929;DHT22;21895;47.072;15.132;2024-01-25T03:10:17;12.20;66.80
20929;DHT22;21895;47.072;15.132;2024-01-25T03:12:43;12.10;67.40
20929;DHT22;21895;47.072;15.132;2024-01-25T03:15:11;12.00;67.10
20929;DHT22;21895;47.072;15.132;2024-01-25T03:17:38;12.10;66.10
20929;DHT22;21895;47.072;15.132;2024-01-25T03:20:06;12.00;66.90
20929;DHT22;21895;47.072;15.132;2024-01-25T03:22:33;12.00;67.10
20929;DHT22;21895;47.072;15.132;2024-01-25T03:24:59;12.10;66.80
20929;DHT22;21895;47.072;15.132;2024-01-25T03:27:26;11.90;67.40
20929;DHT22;21895;47.072;15.132;2024-01-25T03:29:53;11.90;67.10
20929;DHT22;21895;47.072;15.132;2024-01-25T03:32:19;11.90;67.80
20929;DHT22;21895;47.072;15.132;2024-01-25T03:34:46;11.80;68.50
20929;DHT22;21895;47.072;15.132;2024-01-25T03:37:13;11.70;68.40
20929;DHT22;21895;47.072;15.132;2024-01-25T03:39:39;11.70;69.20
20929;DHT22;21895;47.072;15.132;2024-01-25T03:42:06;11.70;69.80
20929;DHT22;21895;47.072;15.132;2024-01-25T03:44:33;11.60;69.20
20929;DHT22;21895;47.072;15.132;2024-01-25T03:47:00;11.70;69.40
20929;DHT22;21895;47.072;15.132;2024-01-25T03:49:27;11.60;69.30
20929;DHT22;21895;47.072;15.132;2024-01-25T03:51:54;11.50;70.00
20929;DHT22;21895;47.072;15.132;2024-01-25T03:54:20;11.60;70.40
20929;DHT22;21895;47.072;15.132;2024-01-25T03:56:47;11.60;71.50
20929;DHT22;21895;47.072;15.132;2024-01-25T03:59:14;11.50;71.60
20929;DHT22;21895;47.072;15.132;2024-01-25T04:01:44;11.50;72.20
20929;DHT22;21895;47.072;15.132;2024-01-25T04:04:11;11.50;72.40
20929;DHT22;21895;47.072;15.132;2024-01-25T04:06:41;11.40;72.80
20929;DHT22;21895;47.072;15.132;2024-01-25T04:09:09;11.30;73.60
20929;DHT22;21895;47.072;15.132;2024-01-25T04:11:36;11.10;73.70
20929;DHT22;21895;47.072;15.132;2024-01-25T04:14:04;11.00;74.30
20929;DHT22;21895;47.072;15.132;2024-01-25T04:16:32;11.00;74.60
20929;DHT22;21895;47.072;15.132;2024-01-25T04:19:00;10.90;75.70
20929;DHT22;21895;47.072;15.132;2024-01-25T04:21:27;10.80;76.70
20929;DHT22;21895;47.072;15.132;2024-01-25T04:23:54;10.70;76.40
20929;DHT22;21895;47.072;15.132;2024-01-25T04:26:21;10.70;77.60
20929;DHT22;21895;47.072;15.132;2024-01-25T04:28:47;10.70;78.10
20929;DHT22;21895;47.072;15.132;2024-01-25T04:31:14;10.70;79.20
20929;DHT22;21895;47.072;15.132;2024-01-25T04:33:43;10.60;81.30
20929;DHT22;21895;47.072;15.132;2024-01-25T04:36:16;10.50;81.80
20929;DHT22;21895;47.072;15.132;2024-01-25T04:38:43;10.40;82.30
20929;DHT22;21895;47.072;15.132;2024-01-25T04:41:09;10.40;82.80
20929;DHT22;21895;47.072;15.132;2024-01-25T04:43:36;10.40;83.20
20929;DHT22;21895;47.072;15.132;2024-01-25T04:46:03;10.30;83.60
20929;DHT22;21895;47.072;15.132;2024-01-25T04:48:30;10.30;83.70
20929;DHT22;21895;47.072;15.132;2024-01-25T04:50:57;10.30;84.00
20929;DHT22;21895;47.072;15.132;2024-01-25T04:53:25;10.30;84.90
20929;DHT22;21895;47.072;15.132;2024-01-25T04:55:53;10.20;84.80
20929;DHT22;21895;47.072;15.132;2024-01-25T04:58:20;10.20;85.50
20929;DHT22;21895;47.072;15.132;2024-01-25T05:00:47;10.10;85.70
20929;DHT22;21895;47.072;15.132;2024-01-25T05:03:14;10.10;86.30
20929;DHT22;21895;47.072;15.132;2024-01-25T05:05:41;10.00;86.80
20929;DHT22;21895;47.072;15.132;2024-01-25T05:08:07;9.90;87.00
20929;DHT22;21895;47.072;15.132;2024-01-25T05:10:34;9.90;86.70
20929;DHT22;21895;47.072;15.132;2024-01-25T05:13:01;9.80;86.90
20929;DHT22;21895;47.072;15.132;2024-01-25T05:15:27;9.70;87.30
20929;DHT22;21895;47.072;15.132;2024-01-25T05:17:54;9.70;87.90
20929;DHT22;21895;47.072;15.132;2024-01-25T05:20:20;9.50;88.50
20929;DHT22;21895;47.072;15.132;2024-01-25T05:22:48;9.50;89.60
20929;DHT22;21895;47.072;15.132;2024-01-25T05:25:14;9.40;90.10
20929;DHT22;21895;47.072;15.132;2024-01-25T05:27:41;9.40;90.00
20929;DHT22;21895;47.072;15.132;2024-01-25T05:30:08;9.40;90.50
20929;DHT22;21895;47.072;15.132;2024-01-25T05:32:36;9.60;90.40
20929;DHT22;21895;47.072;15.132;2024-01-25T05:35:03;9.60;90.20
20929;DHT22;21895;47.072;15.132;2024-01-25T05:37:31;9.50;90.30
20929;DHT22;21895;47.072;15.132;2024-01-25T05:39:57;9.50;90.40
20929;DHT22;21895;47.072;15.132;2024-01-25T05:42:24;9.30;90.70
20929;DHT22;21895;47.072;15.132;2024-01-25T05:44:50;9.20;91.00
20929;DHT22;21895;47.072;15.132;2024-01-25T05:47:21;9.20;91.20
20929;DHT22;21895;47.072;15.132;2024-01-25T05:49:47;9.00;91.40
20929;DHT22;21895;47.072;15.132;2024-01-25T05:52:15;8.70;91.80
20929;DHT22;21895;47.072;15.132;2024-01-25T05:54:42;8.70;92.10
20929;DHT22;21895;47.072;15.132;2024-01-25T05:57:10;8.70;92.30
20929;DHT22;21895;47.072;15.132;2024-01-25T05:59:36;8.70;92.40
20929;DHT22;21895;47.072;15.132;2024-01-25T06:02:03;8.80;92.50
20929;DHT22;21895;47.072;15.132;2024-01-25T06:04:30;8.80;92.50
20929;DHT22;21895;47.072;15.132;2024-01-25T06:06:57;8.80;92.60
20929;DHT22;21895;47.072;15.132;2024-01-25T06:09:24;8.70;92.90
20929;DHT22;21895;47.072;15.132;2024-01-25T06:11:51;8.70;92.90
20929;DHT22;21895;47.072;15.132;2024-01-25T06:14:17;8.60;93.10
20929;DHT22;21895;47.072;15.132;2024-01-25T06:16:44;8.50;93.40
20929;DHT22;21895;47.072;15.132;2024-01-25T06:19:11;8.50;93.50
20929;DHT22;21895;47.072;15.132;2024-01-25T06:21:38;8.50;93.60
20929;DHT22;21895;47.072;15.132;2024-01-25T06:24:05;8.50;93.70
20929;DHT22;21895;47.072;15.132;2024-01-25T06:26:32;8.50;93.70
20929;DHT22;21895;47.072;15.132;2024-01-25T06:28:59;8.50;93.70
20929;DHT22;21895;47.072;15.132;2024-01-25T06:31:26;8.50;93.80
20929;DHT22;21895;47.072;15.132;2024-01-25T06:33:52;8.60;93.80
20929;DHT22;21895;47.072;15.132;2024-01-25T06:36:20;8.70;93.80
20929;DHT22;21895;47.072;15.132;2024-01-25T06:38:46;8.80;93.80
20929;DHT22;21895;47.072;15.132;2024-01-25T06:41:13;8.80;93.80
20929;DHT22;21895;47.072;15.132;2024-01-25T06:43:41;8.70;93.80
20929;DHT22;21895;47.072;15.132;2024-01-25T06:46:07;8.70;93.90
20929;DHT22;21895;47.072;15.132;2024-01-25T06:48:34;8.70;94.00
20929;DHT22;21895;47.072;15.132;2024-01-25T06:51:02;8.60;94.00
20929;DHT22;21895;47.072;15.132;2024-01-25T06:53:28;8.60;94.20
20929;DHT22;21895;47.072;15.132;2024-01-25T06:55:55;8.60;94.20
20929;DHT22;21895;47.072;15.132;2024-01-25T06:58:22;8.80;94.00
20929;DHT22;21895;47.072;15.132;2024-01-25T07:00:49;9.00;93.80
20929;DHT22;21895;47.072;15.132;2024-01-25T07:03:16;9.20;93.60
20929;DHT22;21895;47.072;15.132;2024-01-25T07:05:43;9.10;93.80
20929;DHT22;21895;47.072;15.132;2024-01-25T07:08:10;9.10;93.80
20929;DHT22;21895;47.072;15.132;2024-01-25T07:10:40;9.20;93.70
20929;DHT22;21895;47.072;15.132;2024-01-25T07:13:07;9.20;93.80
20929;DHT22;21895;47.072;15.132;2024-01-25T07:15:34;9.20;94.00
20929;DHT22;21895;47.072;15.132;2024-01-25T07:18:01;9.20;93.90
20929;DHT22;21895;47.072;15.132;2024-01-25T07:20:28;9.20;93.80
20929;DHT22;21895;47.072;15.132;2024-01-25T07:22:55;9.30;93.70
20929;DHT22;21895;47.072;15.132;2024-01-25T07:25:22;9.50;93.50
20929;DHT22;21895;47.072;15.132;2024-01-25T07:27:49;9.70;93.20
20929;DHT22;21895;47.072;15.132;2024-01-25T07:30:16;9.80;93.10
20929;DHT22;21895;47.072;15.132;2024-01-25T07:32:44;9.80;93.10
20929;DHT22;21895;47.072;15.132;2024-01-25T07:35:12;9.80;93.20
20929;DHT22;21895;47.072;15.132;2024-01-25T07:37:39;9.90;93.00
20929;DHT22;21895;47.072;15.132;2024-01-25T07:40:09;9.90;93.20
20929;DHT22;21895;47.072;15.132;2024-01-25T07:42:36;9.90;93.30
20929;DHT22;21895;47.072;15.132;2024-01-25T07:45:03;9.90;93.30
20929;DHT22;21895;47.072;15.132;2024-01-25T07:47:31;9.90;93.30
20929;DHT22;21895;47.072;15.132;2024-01-25T07:49:57;10.00;93.30
20929;DHT22;21895;47.072;15.132;2024-01-25T07:52:24;10.00;93.30
20929;DHT22;21895;47.072;15.132;2024-01-25T07:54:53;9.90;93.40
20929;DHT22;21895;47.072;15.132;2024-01-25T07:57:20;10.00;93.40
20929;DHT22;21895;47.072;15.132;2024-01-25T07:59:47;10.00;93.20
20929;DHT22;21895;47.072;15.132;2024-01-25T08:02:13;10.10;93.10
20929;DHT22;21895;47.072;15.132;2024-01-25T08:04:43;10.10;93.10
20929;DHT22;21895;47.072;15.132;2024-01-25T08:07:10;10.10;93.30
20929;DHT22;21895;47.072;15.132;2024-01-25T08:09:36;10.00;93.50
20929;DHT22;21895;47.072;15.132;2024-01-25T08:12:04;9.90;93.60
20929;DHT22;21895;47.072;15.132;2024-01-25T08:14:30;9.90;93.90
20929;DHT22;21895;47.072;15.132;2024-01-25T08:16:57;9.90;93.80
20929;DHT22;21895;47.072;15.132;2024-01-25T08:19:24;10.00;93.50
20929;DHT22;21895;47.072;15.132;2024-01-25T08:21:51;10.00;93.40
20929;DHT22;21895;47.072;15.132;2024-01-25T08:24:18;10.00;93.80
20929;DHT22;21895;47.072;15.132;2024-01-25T08:26:44;10.10;93.60
20929;DHT22;21895;47.072;15.132;2024-01-25T08:29:11;10.10;93.50
20929;DHT22;21895;47.072;15.132;2024-01-25T08:31:37;10.20;93.50
20929;DHT22;21895;47.072;15.132;2024-01-25T08:34:04;10.20;93.50
20929;DHT22;21895;47.072;15.132;2024-01-25T08:36:31;10.40;93.10
20929;DHT22;21895;47.072;15.132;2024-01-25T08:38:59;10.60;92.80
20929;DHT22;21895;47.072;15.132;2024-01-25T08:41:26;10.50;92.80
20929;DHT22;21895;47.072;15.132;2024-01-25T08:43:53;10.50;92.90
20929;DHT22;21895;47.072;15.132;2024-01-25T08:46:19;10.50;93.10
20929;DHT22;21895;47.072;15.132;2024-01-25T08:48:46;10.50;93.00
20929;DHT22;21895;47.072;15.132;2024-01-25T08:51:13;10.50;93.10
20929;DHT22;21895;47.072;15.132;2024-01-25T08:53:39;10.50;93.00
20929;DHT22;21895;47.072;15.132;2024-01-25T08:56:06;10.60;92.60
20929;DHT22;21895;47.072;15.132;2024-01-25T08:58:33;10.60;92.80
20929;DHT22;21895;47.072;15.132;2024-01-25T09:00:59;10.70;92.80
20929;DHT22;21895;47.072;15.132;2024-01-25T09:03:26;10.80;92.80
20929;DHT22;21895;47.072;15.132;2024-01-25T09:05:53;10.80;92.40
20929;DHT22;21895;47.072;15.132;2024-01-25T09:08:20;10.90;92.50
20929;DHT22;21895;47.072;15.132;2024-01-25T09:10:47;11.00;92.30
20929;DHT22;21895;47.072;15.132;2024-01-25T09:13:14;11.10;91.80
20929;DHT22;21895;47.072;15.132;2024-01-25T09:15:40;11.00;92.20
20929;DHT22;21895;47.072;15.132;2024-01-25T09:18:07;11.20;91.80
20929;DHT22;21895;47.072;15.132;2024-01-25T09:20:34;11.20;91.80
20929;DHT22;21895;47.072;15.132;2024-01-25T09:23:00;11.20;91.40
20929;DHT22;21895;47.072;15.132;2024-01-25T09:25:27;11.20;91.10
20929;DHT22;21895;47.072;15.132;2024-01-25T09:27:54;11.20;91.00
20929;DHT22;21895;47.072;15.132;2024-01-25T09:30:23;11.00;91.60
20929;DHT22;21895;47.072;15.132;2024-01-25T09:32:50;11.10;91.10
20929;DHT22;21895;47.072;15.132;2024-01-25T09:35:17;11.10;91.30
20929;DHT22;21895;47.072;15.132;2024-01-25T09:37:44;11.20;91.00
20929;DHT22;21895;47.072;15.132;2024-01-25T09:40:11;11.30;90.70
20929;DHT22;21895;47.072;15.132;2024-01-25T09:42:38;11.40;90.10
20929;DHT22;21895;47.072;15.132;2024-01-25T09:45:11;11.50;89.70
20929;DHT22;21895;47.072;15.132;2024-01-25T09:47:45;11.60;88.60
20929;DHT22;21895;47.072;15.132;2024-01-25T09:50:12;11.60;88.40
20929;DHT22;21895;47.072;15.132;2024-01-25T09:52:39;11.70;87.70
20929;DHT22;21895;47.072;15.132;2024-01-25T09:55:12;11.70;86.20
20929;DHT22;21895;47.072;15.132;2024-01-25T09:57:45;11.70;86.00
20929;DHT22;21895;47.072;15.132;2024-01-25T10:00:16;11.80;87.30
20929;DHT22;21895;47.072;15.132;2024-01-25T10:02:43;11.90;84.80
20929;DHT22;21895;47.072;15.132;2024-01-25T10:05:10;12.00;83.50
20929;DHT22;21895;47.072;15.132;2024-01-25T10:07:41;12.10;83.00
20929;DHT22;21895;47.072;15.132;2024-01-25T10:10:11;12.10;81.70
20929;DHT22;21895;47.072;15.132;2024-01-25T10:12:40;12.10;80.50
20929;DHT22;21895;47.072;15.132;2024-01-25T10:15:09;12.00;79.70
20929;DHT22;21895;47.072;15.132;2024-01-25T10:17:39;12.00;80.60
20929;DHT22;21895;47.072;15.132;2024-01-25T10:20:42;12.00;80.40
20929;DHT22;21895;47.072;15.132;2024-01-25T10:23:09;12.10;79.70
20929;DHT22;21895;47.072;15.132;2024-01-25T10:25:36;12.20;78.50
20929;DHT22;21895;47.072;15.132;2024-01-25T10:28:07;12.30;78.50
20929;DHT22;21895;47.072;15.132;2024-01-25T10:30:35;12.30;79.00
20929;DHT22;21895;47.072;15.132;2024-01-25T10:33:03;12.30;77.90
20929;DHT22;21895;47.072;15.132;2024-01-25T10:35:33;12.40;76.60
20929;DHT22;21895;47.072;15.132;2024-01-25T10:38:02;12.50;76.50
20929;DHT22;21895;47.072;15.132;2024-01-25T10:40:30;12.50;77.00
20929;DHT22;21895;47.072;15.132;2024-01-25T10:42:57;12.50;76.80
20929;DHT22;21895;47.072;15.132;2024-01-25T10:45:24;12.50;75.80
20929;DHT22;21895;47.072;15.132;2024-01-25T10:47:50;12.40;76.50
20929;DHT22;21895;47.072;15.132;2024-01-25T10:50:17;12.40;76.10
20929;DHT22;21895;47.072;15.132;2024-01-25T10:52:45;12.40;77.70
20929;DHT22;21895;47.072;15.132;2024-01-25T10:55:14;12.50;76.80
20929;DHT22;21895;47.072;15.132;2024-01-25T10:57:44;12.70;76.20
20929;DHT22;21895;47.072;15.132;2024-01-25T11:00:13;12.60;76.40
20929;DHT22;21895;47.072;15.132;2024-01-25T11:02:45;12.60;76.60
20929;DHT22;21895;47.072;15.132;2024-01-25T11:05:16;12.60;76.10
20929;DHT22;21895;47.072;15.132;2024-01-25T11:07:50;12.60;75.60
20929;DHT22;21895;47.072;15.132;2024-01-25T11:10:19;12.40;76.10
20929;DHT22;21895;47.072;15.132;2024-01-25T11:13:00;12.40;76.70
20929;DHT22;21895;47.072;15.132;2024-01-25T11:15:34;12.30;76.90
20929;DHT22;21895;47.072;15.132;2024-01-25T11:18:04;12.20;75.50
20929;DHT22;21895;47.072;15.132;2024-01-25T11:20:35;12.30;75.80
20929;DHT22;21895;47.072;15.132;2024-01-25T11:23:05;12.30;75.90
20929;DHT22;21895;47.072;15.132;2024-01-25T11:25:34;12.30;76.20
20929;DHT22;21895;47.072;15.132;2024-01-25T11:28:04;12.40;75.80
20929;DHT22;21895;47.072;15.132;2024-01-25T11:30:34;12.40;75.60
20929;DHT22;21895;47.072;15.132;2024-01-25T11:33:04;12.30;75.80
20929;DHT22;21895;47.072;15.132;2024-01-25T11:35:31;12.30;75.50
20929;DHT22;21895;47.072;15.132;2024-01-25T11:37:58;12.30;75.30
20929;DHT22;21895;47.072;15.132;2024-01-25T11:40:26;12.40;75.70
20929;DHT22;21895;47.072;15.132;2024-01-25T11:42:54;12.30;75.20
20929;DHT22;21895;47.072;15.132;2024-01-25T11:45:21;12.30;75.70
20929;DHT22;21895;47.072;15.132;2024-01-25T11:47:49;12.20;75.50
20929;DHT22;21895;47.072;15.132;2024-01-25T11:50:16;12.20;76.40
20929;DHT22;21895;47.072;15.132;2024-01-25T11:52:43;12.20;75.90
20929;DHT22;21895;47.072;15.132;2024-01-25T11:55:10;12.20;76.10
20929;DHT22;21895;47.072;15.132;2024-01-25T11:57:39;12.20;75.90
20929;DHT22;21895;47.072;15.132;2024-01-25T12:00:13;12.10;75.60
20929;DHT22;21895;47.072;15.132;2024-01-25T12:02:41;12.20;75.90
20929;DHT22;21895;47.072;15.132;2024-01-25T12:05:10;12.20;75.20
20929;DHT22;21895;47.072;15.132;2024-01-25T12:07:39;12.30;74.90
20929;DHT22;21895;47.072;15.132;2024-01-25T12:10:07;12.20;74.70
20929;DHT22;21895;47.072;15.132;2024-01-25T12:12:36;12.20;75.10
20929;DHT22;21895;47.072;15.132;2024-01-25T12:15:06;12.20;75.40
20929;DHT22;21895;47.072;15.132;2024-01-25T12:17:34;12.20;74.80
20929;DHT22;21895;47.072;15.132;2024-01-25T12:20:08;12.20;75.10
20929;DHT22;21895;47.072;15.132;2024-01-25T12:22:38;12.30;75.60
20929;DHT22;21895;47.072;15.132;2024-01-25T12:25:09;12.30;74.70
20929;DHT22;21895;47.072;15.132;2024-01-25T12:27:36;12.30;74.90
20929;DHT22;21895;47.072;15.132;2024-01-25T12:30:06;12.30;74.70
20929;DHT22;21895;47.072;15.132;2024-01-25T12:32:34;12.30;74.30
20929;DHT22;21895;47.072;15.132;2024-01-25T12:35:01;12.30;74.30
20929;DHT22;21895;47.072;15.132;2024-01-25T12:37:28;12.30;74.70
20929;DHT22;21895;47.072;15.132;2024-01-25T12:39:56;12.40;74.10
20929;DHT22;21895;47.072;15.132;2024-01-25T12:42:23;12.50;73.70
20929;DHT22;21895;47.072;15.132;2024-01-25T12:44:52;12.50;72.80
20929;DHT22;21895;47.072;15.132;2024-01-25T12:47:22;12.50;73.40
20929;DHT22;21895;47.072;15.132;2024-01-25T12:49:49;12.50;73.60
20929;DHT22;21895;47.072;15.132;2024-01-25T12:52:17;12.50;73.50
20929;DHT22;21895;47.072;15.132;2024-01-25T12:54:44;12.50;73.70
20929;DHT22;21895;47.072;15.132;2024-01-25T12:57:11;12.50;73.30
20929;DHT22;21895;47.072;15.132;2024-01-25T12:59:37;12.60;73.10
20929;DHT22;21895;47.072;15.132;2024-01-25T13:02:07;12.60;72.70
20929;DHT22;21895;47.072;15.132;2024-01-25T13:04:34;12.70;73.00
20929;DHT22;21895;47.072;15.132;2024-01-25T13:07:01;12.60;72.50
20929;DHT22;21895;47.072;15.132;2024-01-25T13:09:28;12.60;72.80
20929;DHT22;21895;47.072;15.132;2024-01-25T13:11:55;12.70;72.30
20929;DHT22;21895;47.072;15.132;2024-01-25T13:14:22;12.70;71.40
20929;DHT22;21895;47.072;15.132;2024-01-25T13:16:48;12.80;71.10
20929;DHT22;21895;47.072;15.132;2024-01-25T13:19:15;12.80;70.00
20929;DHT22;21895;47.072;15.132;2024-01-25T13:21:41;13.00;69.60
20929;DHT22;21895;47.072;15.132;2024-01-25T13:24:08;12.80;68.70
20929;DHT22;21895;47.072;15.132;2024-01-25T13:26:38;12.70;68.20
20929;DHT22;21895;47.072;15.132;2024-01-25T13:29:04;12.70;68.50
20929;DHT22;21895;47.072;15.132;2024-01-25T13:31:31;12.70;68.20
20929;DHT22;21895;47.072;15.132;2024-01-25T13:33:57;12.70;68.40
20929;DHT22;21895;47.072;15.132;2024-01-25T13:36:24;12.70;68.10
20929;DHT22;21895;47.072;15.132;2024-01-25T13:38:51;12.60;68.20
20929;DHT22;21895;47.072;15.132;2024-01-25T13:41:18;12.70;67.00
20929;DHT22;21895;47.072;15.132;2024-01-25T13:43:45;12.60;67.70
20929;DHT22;21895;47.072;15.132;2024-01-25T13:46:11;12.70;67.10
20929;DHT22;21895;47.072;15.132;2024-01-25T13:48:39;12.70;66.20
20929;DHT22;21895;47.072;15.132;2024-01-25T13:51:06;12.60;66.70
20929;DHT22;21895;47.072;15.132;2024-01-25T13:53:32;12.60;66.20
20929;DHT22;21895;47.072;15.132;2024-01-25T13:56:00;12.70;66.20
20929;DHT22;21895;47.072;15.132;2024-01-25T13:58:26;12.70;66.10
20929;DHT22;21895;47.072;15.132;2024-01-25T14:00:53;12.70;65.70
20929;DHT22;21895;47.072;15.132;2024-01-25T14:03:20;12.70;65.70
20929;DHT22;21895;47.072;15.132;2024-01-25T14:05:47;12.80;65.60
20929;DHT22;21895;47.072;15.132;2024-01-25T14:08:14;12.70;65.10
20929;DHT22;21895;47.072;15.132;2024-01-25T14:10:40;12.70;65.00
20929;DHT22;21895;47.072;15.132;2024-01-25T14:13:07;12.60;65.00
20929;DHT22;21895;47.072;15.132;2024-01-25T14:15:34;12.60;65.90
20929;DHT22;21895;47.072;15.132;2024-01-25T14:18:02;12.60;65.10
20929;DHT22;21895;47.072;15.132;2024-01-25T14:20:29;12.60;64.40
20929;DHT22;21895;47.072;15.132;2024-01-25T14:22:56;12.70;62.10
20929;DHT22;21895;47.072;15.132;2024-01-25T14:25:23;12.70;63.00
20929;DHT22;21895;47.072;15.132;2024-01-25T14:27:49;12.60;63.90
20929;DHT22;21895;47.072;15.132;2024-01-25T14:30:17;12.60;63.50
20929;DHT22;21895;47.072;15.132;2024-01-25T14:32:44;12.50;64.60
20929;DHT22;21895;47.072;15.132;2024-01-25T14:35:13;12.40;64.00
20929;DHT22;21895;47.072;15.132;2024-01-25T14:37:39;12.40;64.30
20929;DHT22;21895;47.072;15.132;2024-01-25T14:40:07;12.60;65.00
20929;DHT22;21895;47.072;15.132;2024-01-25T14:42:55;12.60;63.50
20929;DHT22;21895;47.072;15.132;2024-01-25T14:45:22;12.50;64.10
20929;DHT22;21895;47.072;15.132;2024-01-25T14:47:49;12.50;64.30
20929;DHT22;21895;47.072;15.132;2024-01-25T14:50:15;12.50;62.80
20929;DHT22;21895;47.072;15.132;2024-01-25T14:52:42;12.60;62.30
20929;DHT22;21895;47.072;15.132;2024-01-25T14:55:08;12.60;62.00
20929;DHT22;21895;47.072;15.132;2024-01-25T14:57:35;12.60;62.20
20929;DHT22;21895;47.072;15.132;2024-01-25T15:00:03;12.60;62.50
20929;DHT22;21895;47.072;15.132;2024-01-25T15:02:32;12.60;63.40
20929;DHT22;21895;47.072;15.132;2024-01-25T15:04:59;12.50;63.60
20929;DHT22;21895;47.072;15.132;2024-01-25T15:07:26;12.50;62.60
20929;DHT22;21895;47.072;15.132;2024-01-25T15:09:52;12.40;64.00
20929;DHT22;21895;47.072;15.132;2024-01-25T15:12:19;12.30;64.70
20929;DHT22;21895;47.072;15.132;2024-01-25T15:14:46;12.00;65.00
20929;DHT22;21895;47.072;15.132;2024-01-25T15:17:12;12.30;65.00
20929;DHT22;21895;47.072;15.132;2024-01-25T15:19:39;12.20;64.30
20929;DHT22;21895;47.072;15.132;2024-01-25T15:22:06;12.20;63.50